createdAt,value
2023-03-26T00:01:49.967Z,91941.06
2023-03-26T00:04:19.937Z,91939.94
2023-03-26T00:06:49.332Z,91937.56
2023-03-26T00:09:18.564Z,91937.19
2023-03-26T00:11:48.283Z,91937.91
2023-03-26T00:14:17.733Z,91929.88
2023-03-26T00:16:49.665Z,91936.38
2023-03-26T00:19:18.148Z,91933.38
2023-03-26T00:21:48.658Z,91937.91
2023-03-26T00:24:17.589Z,91933.31
2023-03-26T00:26:53.439Z,91938.31
2023-03-26T00:29:23.092Z,91930.66
2023-03-26T00:31:53.042Z,91927.19
2023-03-26T00:34:23.313Z,91926.03
2023-03-26T00:36:54.472Z,91930.69
2023-03-26T00:39:24.228Z,91927.94
2023-03-26T00:41:54.530Z,91925.69
2023-03-26T00:44:23.882Z,91924.88
2023-03-26T00:46:53.779Z,91919.47
2023-03-26T00:49:22.422Z,91917.19
2023-03-26T00:51:51.371Z,91919.06
2023-03-26T00:54:20.672Z,91908.69
2023-03-26T00:56:49.141Z,91906.13
2023-03-26T00:59:17.717Z,91911.88
2023-03-26T01:01:47.190Z,91913.25
2023-03-26T01:04:31.700Z,91902.13
2023-03-26T01:07:05.378Z,91910.28
2023-03-26T01:09:37.682Z,91914.88
2023-03-26T01:12:11.791Z,91911.38
2023-03-26T01:14:41.037Z,91909.41
2023-03-26T01:17:13.224Z,91918.50
2023-03-26T01:19:50.072Z,91918.75
2023-03-26T01:22:21.616Z,91910.88
2023-03-26T01:24:56.262Z,91907.66
2023-03-26T01:27:38.988Z,91901.69
2023-03-26T01:30:17.069Z,91887.22
2023-03-26T01:32:58.177Z,91890.06
2023-03-26T01:35:39.687Z,91878.47
2023-03-26T01:38:24.557Z,91879.44
2023-03-26T01:40:59.654Z,91874.03
2023-03-26T01:43:35.250Z,91858.81
2023-03-26T01:46:08.665Z,91846.97
2023-03-26T01:48:43.499Z,91849.78
2023-03-26T01:51:13.650Z,91841.44
2023-03-26T01:53:45.768Z,91838.22
2023-03-26T01:56:21.095Z,91835.56
2023-03-26T01:59:13.557Z,91823.63
2023-03-26T02:01:54.852Z,91817.91
2023-03-26T02:04:29.565Z,91803.84
2023-03-26T02:07:05.875Z,91804.31
2023-03-26T02:09:39.245Z,91792.91
2023-03-26T02:12:10.980Z,91790.94
2023-03-26T02:14:39.767Z,91784.31
2023-03-26T02:17:10.696Z,91773.22
2023-03-26T02:19:42.247Z,91769.63
2023-03-26T02:22:15.873Z,91764.91
2023-03-26T02:24:46.237Z,91762.53
2023-03-26T02:27:18.432Z,91765.50
2023-03-26T02:29:47.975Z,91760.94
2023-03-26T02:32:16.466Z,91746.31
2023-03-26T02:34:44.902Z,91748.06
2023-03-26T02:37:13.314Z,91745.06
2023-03-26T02:39:42.380Z,91743.06
2023-03-26T02:42:11.036Z,91732.94
2023-03-26T02:44:40.828Z,91729.13
2023-03-26T02:47:09.496Z,91732.97
2023-03-26T02:49:38.119Z,91725.25
2023-03-26T02:52:07.625Z,91723.84
2023-03-26T02:54:37.036Z,91721.22
2023-03-26T02:57:05.832Z,91722.59
2023-03-26T02:59:34.290Z,91713.13
2023-03-26T03:02:04.167Z,91715.44
2023-03-26T03:04:32.609Z,91714.72
2023-03-26T03:07:01.342Z,91712.13
2023-03-26T03:09:29.751Z,91704.38
2023-03-26T03:11:58.364Z,91694.81
2023-03-26T03:14:26.910Z,91680.03
2023-03-26T03:16:57.256Z,91682.38
2023-03-26T03:19:27.351Z,91673.47
2023-03-26T03:21:55.762Z,91663.28
2023-03-26T03:24:24.182Z,91672.75
2023-03-26T03:26:56.883Z,91668.22
2023-03-26T03:29:25.576Z,91669.78
2023-03-26T03:31:53.986Z,91659.72
2023-03-26T03:34:23.428Z,91665.91
2023-03-26T03:36:53.228Z,91660.59
2023-03-26T03:39:21.999Z,91654.44
2023-03-26T03:41:50.515Z,91654.09
2023-03-26T03:44:19.198Z,91649.47
2023-03-26T03:46:49.235Z,91645.72
2023-03-26T03:49:17.676Z,91641.00
2023-03-26T03:51:46.176Z,91641.09
2023-03-26T03:54:16.012Z,91636.50
2023-03-26T03:56:45.759Z,91641.50
2023-03-26T03:59:14.241Z,91636.81
2023-03-26T04:01:46.802Z,91611.59
2023-03-26T04:04:15.382Z,91615.84
2023-03-26T04:06:43.949Z,91610.97
2023-03-26T04:09:12.608Z,91614.34
2023-03-26T04:11:42.396Z,91620.47
2023-03-26T04:14:11.333Z,91602.97
2023-03-26T04:16:39.757Z,91597.97
2023-03-26T04:19:08.561Z,91597.22
2023-03-26T04:21:37.874Z,91594.97
2023-03-26T04:24:07.522Z,91594.16
2023-03-26T04:26:36.746Z,91592.66
2023-03-26T04:29:12.190Z,91590.31
2023-03-26T04:31:43.240Z,91592.69
2023-03-26T04:34:27.539Z,91589.25
2023-03-26T04:36:56.063Z,91578.16
2023-03-26T04:39:29.301Z,91572.06
2023-03-26T04:41:59.050Z,91566.31
2023-03-26T04:44:30.373Z,91565.16
2023-03-26T04:46:58.963Z,91559.44
2023-03-26T04:49:27.399Z,91548.72
2023-03-26T04:51:55.913Z,91539.94
2023-03-26T04:54:24.856Z,91536.88
2023-03-26T04:56:58.587Z,91529.63
2023-03-26T04:59:35.049Z,91523.13
2023-03-26T05:02:05.738Z,91518.53
2023-03-26T05:04:37.001Z,91517.38
2023-03-26T05:07:05.466Z,91506.69
2023-03-26T05:09:34.337Z,91511.66
2023-03-26T05:12:02.799Z,91501.72
2023-03-26T05:14:32.788Z,91488.72
2023-03-26T05:17:07.688Z,91478.81
2023-03-26T05:19:36.147Z,91486.44
2023-03-26T05:22:04.646Z,91479.53
2023-03-26T05:24:33.090Z,91471.91
2023-03-26T05:27:01.594Z,91478.00
2023-03-26T05:29:30.084Z,91467.31
2023-03-26T05:31:59.925Z,91464.25
2023-03-26T05:34:28.806Z,91471.53
2023-03-26T05:36:57.549Z,91478.78
2023-03-26T05:39:26.956Z,91468.84
2023-03-26T05:41:55.441Z,91471.13
2023-03-26T05:44:23.892Z,91474.97
2023-03-26T05:46:52.338Z,91465.03
2023-03-26T05:49:22.227Z,91463.09
2023-03-26T05:51:50.619Z,91466.56
2023-03-26T05:54:19.250Z,91443.63
2023-03-26T05:56:47.667Z,91460.44
2023-03-26T05:59:18.133Z,91449.72
2023-03-26T06:01:46.595Z,91440.56
2023-03-26T06:04:16.191Z,91428.31
2023-03-26T06:06:46.160Z,91426.03
2023-03-26T06:09:14.949Z,91409.59
2023-03-26T06:11:43.431Z,91405.00
2023-03-26T06:14:11.952Z,91402.31
2023-03-26T06:16:40.369Z,91394.69
2023-03-26T06:19:09.081Z,91399.25
2023-03-26T06:21:37.521Z,91395.84
2023-03-26T06:24:08.602Z,91392.44
2023-03-26T06:26:37.064Z,91384.75
2023-03-26T06:29:06.265Z,91382.50
2023-03-26T06:31:34.899Z,91382.50
2023-03-26T06:34:03.377Z,91377.91
2023-03-26T06:36:31.902Z,91372.56
2023-03-26T06:39:00.352Z,91352.25
2023-03-26T06:41:37.770Z,91362.94
2023-03-26T06:44:06.447Z,91361.00
2023-03-26T06:46:34.891Z,91359.09
2023-03-26T06:49:03.309Z,91354.16
2023-03-26T06:51:31.780Z,91344.22
2023-03-26T06:54:00.477Z,91340.31
2023-03-26T06:56:28.964Z,91332.66
2023-03-26T06:58:59.018Z,91327.28
2023-03-26T07:01:27.529Z,91330.34
2023-03-26T07:03:56.413Z,91338.00
2023-03-26T07:06:28.693Z,91330.78
2023-03-26T07:08:57.666Z,91332.66
2023-03-26T07:11:27.084Z,91327.63
2023-03-26T07:13:56.530Z,91326.16
2023-03-26T07:16:26.892Z,91315.81
2023-03-26T07:18:55.605Z,91310.41
2023-03-26T07:21:24.959Z,91327.97
2023-03-26T07:23:56.607Z,91321.91
2023-03-26T07:26:34.725Z,91302.81
2023-03-26T07:29:12.243Z,91317.72
2023-03-26T07:31:50.511Z,91316.81
2023-03-26T07:34:38.297Z,91309.25
2023-03-26T07:37:15.131Z,91288.13
2023-03-26T07:39:51.942Z,91292.72
2023-03-26T07:42:39.582Z,91283.09
2023-03-26T07:45:20.687Z,91279.97
2023-03-26T07:47:53.653Z,91255.66
2023-03-26T07:50:24.876Z,91270.00
2023-03-26T07:52:54.103Z,91258.28
2023-03-26T07:55:23.530Z,91265.06
2023-03-26T07:58:07.671Z,91239.31
2023-03-26T08:00:43.776Z,91237.69
2023-03-26T08:03:45.157Z,91268.28
2023-03-26T08:06:19.511Z,91244.91
2023-03-26T08:08:56.957Z,91277.75
2023-03-26T08:11:36.677Z,91245.47
2023-03-26T08:14:21.761Z,91243.09
2023-03-26T08:16:57.095Z,91236.91
2023-03-26T08:19:49.282Z,91264.94
2023-03-26T08:22:26.339Z,91323.47
2023-03-26T08:25:25.729Z,91318.00
2023-03-26T08:28:06.422Z,91323.00
2023-03-26T08:30:35.108Z,91308.09
2023-03-26T08:33:13.822Z,91320.69
2023-03-26T08:35:43.948Z,91345.31
2023-03-26T08:38:14.085Z,91335.06
2023-03-26T08:41:32.046Z,91335.13
2023-03-26T08:45:01.077Z,91304.47
2023-03-26T08:48:18.965Z,91308.47
2023-03-26T08:51:31.326Z,91284.50
2023-03-26T08:54:33.138Z,91304.69
2023-03-26T08:57:38.878Z,91281.47
2023-03-26T09:00:48.803Z,91269.09
2023-03-26T09:03:35.635Z,91268.47
2023-03-26T09:06:47.248Z,91296.13
2023-03-26T09:10:12.583Z,91287.13
2023-03-26T09:13:16.221Z,91309.59
2023-03-26T09:16:12.965Z,91289.31
2023-03-26T09:19:17.810Z,91282.22
2023-03-26T09:22:38.199Z,91288.25
2023-03-26T09:25:55.040Z,91288.47
2023-03-26T09:29:22.797Z,91293.59
2023-03-26T09:32:47.160Z,91334.28
2023-03-26T09:35:56.177Z,91299.19
2023-03-26T09:38:44.414Z,91306.13
2023-03-26T09:41:17.674Z,91321.06
2023-03-26T09:44:25.794Z,91294.59
2023-03-26T09:47:28.847Z,91297.91
2023-03-26T09:50:20.130Z,91282.91
2023-03-26T09:53:29.922Z,91278.75
2023-03-26T09:56:10.658Z,91306.78
2023-03-26T09:59:08.211Z,91274.69
2023-03-26T10:01:46.270Z,91281.53
2023-03-26T10:05:06.427Z,91280.25
2023-03-26T10:07:56.169Z,91267.47
2023-03-26T10:10:36.245Z,91276.69
2023-03-26T10:13:18.715Z,91273.94
2023-03-26T10:16:04.573Z,91269.09
2023-03-26T10:18:46.241Z,91268.38
2023-03-26T10:21:25.655Z,91256.72
2023-03-26T10:24:20.541Z,91283.19
2023-03-26T10:27:16.120Z,91293.50
2023-03-26T10:30:27.043Z,91279.19
2023-03-26T10:33:07.542Z,91280.00
2023-03-26T10:35:48.549Z,91322.50
2023-03-26T10:38:26.360Z,91284.13
2023-03-26T10:41:06.010Z,91269.06
2023-03-26T10:44:08.528Z,91285.44
2023-03-26T10:47:13.008Z,91282.72
2023-03-26T10:50:23.705Z,91303.00
2023-03-26T10:52:57.396Z,91298.91
2023-03-26T10:55:34.592Z,91327.78
2023-03-26T10:58:14.780Z,91327.97
2023-03-26T11:00:52.697Z,91318.22
2023-03-26T11:03:53.137Z,91316.91
2023-03-26T11:06:33.747Z,91305.34
2023-03-26T11:09:14.357Z,91298.72
2023-03-26T11:11:49.992Z,91293.34
2023-03-26T11:14:34.352Z,91287.06
2023-03-26T11:17:14.817Z,91288.69
2023-03-26T11:20:09.318Z,91318.44
2023-03-26T11:22:51.786Z,91333.00
2023-03-26T11:25:45.143Z,91331.97
2023-03-26T11:28:35.472Z,91345.94
2023-03-26T11:31:12.420Z,91306.06
2023-03-26T11:33:47.398Z,91305.09
2023-03-26T11:36:24.131Z,91302.31
2023-03-26T11:38:57.519Z,91303.63
2023-03-26T11:41:31.091Z,91319.47
2023-03-26T11:44:05.516Z,91298.91
2023-03-26T11:46:39.358Z,91295.69
2023-03-26T11:49:12.567Z,91260.78
2023-03-26T11:51:43.926Z,91266.00
2023-03-26T11:54:14.858Z,91274.88
2023-03-26T11:57:05.914Z,91279.00
2023-03-26T11:59:49.011Z,91277.16
2023-03-26T12:02:32.577Z,91280.88
2023-03-26T12:05:19.782Z,91283.31
2023-03-26T12:07:57.362Z,91305.31
2023-03-26T12:10:31.156Z,91298.97
2023-03-26T12:13:03.235Z,91318.88
2023-03-26T12:15:33.122Z,91311.75
2023-03-26T12:18:25.309Z,91315.72
2023-03-26T12:21:09.179Z,91360.22
2023-03-26T12:23:57.257Z,91357.84
2023-03-26T12:26:39.720Z,91395.13
2023-03-26T12:29:12.771Z,91424.56
2023-03-26T12:31:58.154Z,91442.34
2023-03-26T12:34:34.964Z,91414.34
2023-03-26T12:37:05.407Z,91386.06
2023-03-26T12:40:10.778Z,91364.38
2023-03-26T12:44:50.406Z,91342.97
2023-03-26T12:45:23.895Z,91319.03
2023-03-26T12:48:03.404Z,91297.78
2023-03-26T12:50:57.709Z,91281.84
2023-03-26T12:53:47.978Z,91274.22
2023-03-26T12:56:23.511Z,91265.06
2023-03-26T12:59:22.873Z,91250.22
2023-03-26T13:02:04.742Z,91257.72
2023-03-26T13:05:05.814Z,91261.88
2023-03-26T13:08:02.829Z,91256.56
2023-03-26T13:10:50.247Z,91242.59
2023-03-26T13:13:56.479Z,91250.66
2023-03-26T13:16:35.459Z,91253.47
2023-03-26T13:19:09.887Z,91247.66
2023-03-26T13:22:01.148Z,91247.00
2023-03-26T13:24:45.661Z,91243.97
2023-03-26T13:27:29.330Z,91246.84
2023-03-26T13:30:06.813Z,91253.81
2023-03-26T13:32:57.394Z,91263.09
2023-03-26T13:35:36.481Z,91263.84
2023-03-26T13:38:12.973Z,91230.72
2023-03-26T13:40:53.481Z,91235.28
2023-03-26T13:43:37.218Z,91223.97
2023-03-26T13:46:20.112Z,91207.53
2023-03-26T13:48:55.008Z,91209.19
2023-03-26T13:51:30.661Z,91194.94
2023-03-26T13:54:10.435Z,91190.16
2023-03-26T13:56:45.016Z,91175.06
2023-03-26T13:59:18.859Z,91152.63
2023-03-26T14:01:56.038Z,91154.09
2023-03-26T14:04:32.578Z,91138.75
2023-03-26T14:07:08.312Z,91128.75
2023-03-26T14:09:45.687Z,91130.19
2023-03-26T14:12:35.416Z,91144.91
2023-03-26T14:15:06.668Z,91137.84
2023-03-26T14:17:43.165Z,91149.84
2023-03-26T14:20:44.735Z,91169.88
2023-03-26T14:23:40.441Z,91218.88
2023-03-26T14:26:25.320Z,91278.34
2023-03-26T14:29:31.458Z,91303.72
2023-03-26T14:32:33.433Z,91311.75
2023-03-26T14:35:33.685Z,91294.13
2023-03-26T14:38:34.905Z,91286.25
2023-03-26T14:41:19.735Z,91275.78
2023-03-26T14:44:25.019Z,91292.38
2023-03-26T14:47:14.513Z,91268.66
2023-03-26T14:50:26.848Z,91274.28
2023-03-26T14:53:01.185Z,91247.22
2023-03-26T14:56:43.300Z,91240.97
2023-03-26T15:00:15.836Z,91230.31
2023-03-26T15:03:41.019Z,91224.22
2023-03-26T15:07:18.844Z,91226.91
2023-03-26T15:10:43.379Z,91234.53
2023-03-26T15:13:36.079Z,91227.59
2023-03-26T15:16:53.649Z,91232.16
2023-03-26T15:20:32.799Z,91222.13
2023-03-26T15:24:03.715Z,91217.06
2023-03-26T15:27:19.785Z,91219.66
2023-03-26T15:30:51.339Z,91234.13
2023-03-26T15:34:30.439Z,91233.19
2023-03-26T15:37:42.378Z,91232.50
2023-03-26T15:40:46.680Z,91240.78
2023-03-26T15:43:20.313Z,91235.03
2023-03-26T15:45:53.850Z,91223.22
2023-03-26T15:48:53.159Z,91237.59
2023-03-26T15:51:47.320Z,91240.34
2023-03-26T15:54:25.570Z,91227.81
2023-03-26T15:57:09.472Z,91221.88
2023-03-26T15:59:52.299Z,91242.34
2023-03-26T16:02:34.777Z,91249.09
2023-03-26T16:05:43.359Z,91262.94
2023-03-26T16:08:26.697Z,91252.34
2023-03-26T16:10:57.965Z,91251.56
2023-03-26T16:13:38.117Z,91258.56
2023-03-26T16:16:25.502Z,91261.53
2023-03-26T16:18:59.968Z,91258.44
2023-03-26T16:21:57.727Z,91255.78
2023-03-26T16:24:31.995Z,91248.22
2023-03-26T16:27:27.991Z,91259.91
2023-03-26T16:30:31.616Z,91238.88
2023-03-26T16:33:15.753Z,91234.75
2023-03-26T16:36:34.324Z,91229.50
2023-03-26T16:39:20.915Z,91227.16
2023-03-26T16:42:34.357Z,91214.88
2023-03-26T16:45:18.927Z,91213.44
2023-03-26T16:47:59.387Z,91218.03
2023-03-26T16:50:43.657Z,91210.81
2023-03-26T16:53:29.909Z,91219.19
2023-03-26T16:56:02.636Z,91225.34
2023-03-26T16:58:37.901Z,91220.38
2023-03-26T17:01:16.188Z,91220.44
2023-03-26T17:03:55.965Z,91212.34
2023-03-26T17:07:02.102Z,91231.94
2023-03-26T17:09:42.736Z,91225.34
2023-03-26T17:12:20.361Z,91240.25
2023-03-26T17:15:18.203Z,91240.25
2023-03-26T17:17:59.174Z,91260.84
2023-03-26T17:20:36.964Z,91269.38
2023-03-26T17:23:23.926Z,91245.03
2023-03-26T17:26:06.009Z,91250.69
2023-03-26T17:28:51.425Z,91267.91
2023-03-26T17:31:32.636Z,91280.94
2023-03-26T17:34:46.841Z,91278.63
2023-03-26T17:37:45.828Z,91287.38
2023-03-26T17:40:54.589Z,91287.38
2023-03-26T17:43:51.690Z,91302.25
2023-03-26T17:46:37.565Z,91285.44
2023-03-26T17:49:15.909Z,91299.97
2023-03-26T17:51:50.747Z,91300.78
2023-03-26T17:54:25.709Z,91295.00
2023-03-26T17:56:57.709Z,91300.34
2023-03-26T17:59:28.802Z,91307.59
2023-03-26T18:02:01.294Z,91305.34
2023-03-26T18:04:37.898Z,91301.53
2023-03-26T18:07:44.322Z,91302.31
2023-03-26T18:10:45.641Z,91298.88
2023-03-26T18:13:37.753Z,91294.28
2023-03-26T18:16:15.010Z,91293.16
2023-03-26T18:18:51.128Z,91291.22
2023-03-26T18:21:32.108Z,91291.63
2023-03-26T18:24:02.008Z,91289.31
2023-03-26T18:26:37.721Z,91290.47
2023-03-26T18:29:24.099Z,91287.03
2023-03-26T18:31:58.286Z,91285.50
2023-03-26T18:34:31.088Z,91293.13
2023-03-26T18:37:15.765Z,91298.88
2023-03-26T18:39:59.312Z,91303.84
2023-03-26T18:42:29.996Z,91302.66
2023-03-26T18:45:03.985Z,91300.75
2023-03-26T18:47:33.961Z,91299.97
2023-03-26T18:50:02.699Z,91290.78
2023-03-26T18:52:33.340Z,91294.25
2023-03-26T18:55:04.734Z,91284.72
2023-03-26T18:57:33.145Z,91296.91
2023-03-26T19:00:20.914Z,91298.50
2023-03-26T19:02:53.115Z,91306.50
2023-03-26T19:05:22.319Z,91302.25
2023-03-26T19:07:52.403Z,91299.97
2023-03-26T19:10:22.231Z,91300.00
2023-03-26T19:12:57.834Z,91297.69
2023-03-26T19:15:31.605Z,91288.09
2023-03-26T19:18:07.226Z,91288.91
2023-03-26T19:20:42.447Z,91287.00
2023-03-26T19:23:16.269Z,91279.34
2023-03-26T19:25:48.924Z,91282.81
2023-03-26T19:28:21.970Z,91279.38
2023-03-26T19:30:57.958Z,91274.81
2023-03-26T19:33:37.049Z,91276.72
2023-03-26T19:36:18.902Z,91275.19
2023-03-26T19:38:54.094Z,91274.00
2023-03-26T19:41:25.337Z,91269.06
2023-03-26T19:43:58.051Z,91269.88
2023-03-26T19:46:33.292Z,91275.59
2023-03-26T19:49:01.751Z,91274.84
2023-03-26T19:51:35.926Z,91288.97
2023-03-26T19:54:13.963Z,91271.78
2023-03-26T19:56:43.742Z,91282.09
2023-03-26T19:59:13.036Z,91280.94
2023-03-26T20:01:42.974Z,91279.03
2023-03-26T20:04:13.678Z,91274.84
2023-03-26T20:06:44.054Z,91270.25
2023-03-26T20:09:13.651Z,91274.47
2023-03-26T20:11:42.567Z,91272.13
2023-03-26T20:14:17.055Z,91270.63
2023-03-26T20:16:46.907Z,91272.53
2023-03-26T20:19:15.844Z,91276.00
2023-03-26T20:21:44.899Z,91278.63
2023-03-26T20:24:16.222Z,91274.03
2023-03-26T20:26:45.148Z,91279.00
2023-03-26T20:29:14.354Z,91274.03
2023-03-26T20:31:44.018Z,91274.38
2023-03-26T20:34:19.824Z,91282.81
2023-03-26T20:36:54.310Z,91272.53
2023-03-26T20:39:23.940Z,91276.72
2023-03-26T20:41:54.217Z,91281.69
2023-03-26T20:44:23.080Z,91263.38
2023-03-26T20:46:52.470Z,91267.19
2023-03-26T20:49:23.016Z,91273.28
2023-03-26T20:51:51.734Z,91273.28
2023-03-26T20:54:23.149Z,91272.16
2023-03-26T20:56:52.683Z,91265.31
2023-03-26T20:59:26.717Z,91277.09
2023-03-26T21:01:58.056Z,91271.75
2023-03-26T21:04:28.945Z,91271.38
2023-03-26T21:07:07.045Z,91275.59
2023-03-26T21:09:37.195Z,91276.34
2023-03-26T21:12:09.942Z,91279.44
2023-03-26T21:14:42.100Z,91275.19
2023-03-26T21:17:16.782Z,91279.41
2023-03-26T21:19:48.344Z,91282.06
2023-03-26T21:22:31.993Z,91283.22
2023-03-26T21:25:18.222Z,91297.34
2023-03-26T21:28:06.750Z,91287.03
2023-03-26T21:30:36.253Z,91289.69
2023-03-26T21:33:05.585Z,91283.97
2023-03-26T21:35:36.528Z,91283.56
2023-03-26T21:38:06.547Z,91294.28
2023-03-26T21:40:36.040Z,91295.41
2023-03-26T21:43:06.112Z,91295.03
2023-03-26T21:45:35.417Z,91303.78
2023-03-26T21:48:04.635Z,91299.25
2023-03-26T21:50:35.829Z,91301.88
2023-03-26T21:53:05.031Z,91295.81
2023-03-26T21:55:44.675Z,91297.34
2023-03-26T21:58:47.351Z,91303.44
2023-03-26T22:01:29.925Z,91300.78
2023-03-26T22:04:10.247Z,91292.38
2023-03-26T22:06:49.094Z,91298.47
2023-03-26T22:09:23.448Z,91294.66
2023-03-26T22:11:55.592Z,91293.09
2023-03-26T22:14:25.863Z,91281.69
2023-03-26T22:16:54.519Z,91294.28
2023-03-26T22:19:23.036Z,91287.38
2023-03-26T22:21:54.329Z,91286.66
2023-03-26T22:24:22.784Z,91293.13
2023-03-26T22:26:51.187Z,91284.34
2023-03-26T22:29:19.852Z,91287.78
2023-03-26T22:31:48.265Z,91293.16
2023-03-26T22:34:16.756Z,91303.06
2023-03-26T22:36:45.234Z,91301.53
2023-03-26T22:39:15.032Z,91307.28
2023-03-26T22:41:44.024Z,91307.28
2023-03-26T22:44:19.763Z,91311.84
2023-03-26T22:46:51.562Z,91299.28
2023-03-26T22:49:20.323Z,91320.66
2023-03-26T22:51:50.376Z,91317.56
2023-03-26T22:54:20.470Z,91325.22
2023-03-26T22:56:48.952Z,91323.31
2023-03-26T22:59:17.849Z,91321.41
2023-03-26T23:01:46.517Z,91324.44
2023-03-26T23:04:31.219Z,91319.88
2023-03-26T23:07:00.721Z,91318.31
2023-03-26T23:09:30.824Z,91326.34
2023-03-26T23:11:59.316Z,91335.13
2023-03-26T23:14:28.661Z,91332.84
2023-03-26T23:16:57.738Z,91337.41
2023-03-26T23:19:26.457Z,91341.22
2023-03-26T23:21:54.874Z,91345.81
2023-03-26T23:24:26.399Z,91350.38
2023-03-26T23:26:56.312Z,91365.66
2023-03-26T23:29:25.126Z,91364.09
2023-03-26T23:31:54.795Z,91361.81
2023-03-26T23:34:23.451Z,91362.59
2023-03-26T23:36:52.421Z,91368.63
2023-03-26T23:39:20.883Z,91374.75
2023-03-26T23:41:49.513Z,91371.72
2023-03-26T23:44:19.514Z,91367.16
2023-03-26T23:46:48.609Z,91369.31
2023-03-26T23:49:17.472Z,91374.31
2023-03-26T23:51:45.877Z,91382.31
2023-03-26T23:54:15.206Z,91383.06
2023-03-26T23:56:43.704Z,91389.19
2023-03-26T23:59:12.489Z,91397.16
